createdAt,value
2019-05-07T00:18:38.383Z,6.21
2019-05-07T00:21:25.319Z,6.08
2019-05-07T00:24:13.545Z,6.79
2019-05-07T00:27:14.818Z,6.97
2019-05-07T00:30:02.866Z,6.32
2019-05-07T00:36:02.650Z,6.12
2019-05-07T00:38:51.962Z,6.10
2019-05-07T00:48:12.513Z,6.06
2019-05-07T00:54:18.487Z,6.05
2019-05-07T01:00:13.097Z,6.33
2019-05-07T01:12:18.608Z,7.09
2019-05-07T01:27:37.095Z,6.50
2019-05-07T01:30:23.963Z,7.25
2019-05-07T01:33:13.587Z,7.50
2019-05-07T01:42:18.040Z,6.67
2019-05-07T01:45:05.725Z,6.65
2019-05-07T01:50:58.593Z,6.60
2019-05-07T01:53:59.483Z,6.59
2019-05-07T02:06:25.776Z,6.58
2019-05-07T02:37:37.624Z,6.66
2019-05-07T02:40:18.261Z,6.62
2019-05-07T03:21:12.697Z,7.62
2019-05-07T03:24:08.411Z,7.01
2019-05-07T03:26:58.088Z,6.85
2019-05-07T03:55:14.460Z,7.29
2019-05-07T03:58:03.190Z,6.76
2019-05-07T04:00:48.721Z,6.69
2019-05-07T04:06:43.412Z,7.49
2019-05-07T04:09:28.833Z,6.96
2019-05-07T04:12:16.379Z,6.89
2019-05-07T04:27:34.765Z,7.11
2019-05-07T04:30:23.515Z,7.13
2019-05-07T04:33:13.057Z,7.13
2019-05-07T04:36:04.881Z,7.95
2019-05-07T04:54:25.355Z,7.69
2019-05-07T04:57:27.313Z,7.63
2019-05-07T05:00:28.478Z,7.61
2019-05-07T05:03:15.559Z,7.56
2019-05-07T05:15:35.564Z,7.50
2019-05-07T05:18:22.502Z,8.22
2019-05-07T05:24:33.142Z,7.42
2019-05-07T05:27:30.106Z,8.13
2019-05-07T05:30:21.990Z,8.31
2019-05-07T05:33:08.020Z,8.41
2019-05-07T05:35:55.389Z,7.80
2019-05-07T06:20:13.863Z,7.92
2019-05-07T06:26:16.316Z,8.91
2019-05-07T06:29:03.393Z,8.45
2019-05-07T06:31:52.829Z,8.44
2019-05-07T06:50:22.565Z,9.23
2019-05-07T06:53:11.499Z,9.30
2019-05-07T06:55:56.483Z,9.33
2019-05-07T06:58:46.613Z,9.43
2019-05-07T07:08:09.946Z,10.67
2019-05-07T07:11:15.595Z,10.18
2019-05-07T07:14:02.704Z,10.27
2019-05-07T07:16:52.659Z,10.38
2019-05-07T07:26:03.491Z,11.81
2019-05-07T07:28:52.500Z,11.28
2019-05-07T07:31:38.494Z,11.50
2019-05-07T07:34:25.657Z,11.83
2019-05-07T07:37:25.044Z,12.25
2019-05-07T07:40:12.934Z,12.42
2019-05-07T07:42:59.313Z,12.19
2019-05-07T07:46:02.192Z,11.84
2019-05-07T07:51:54.962Z,12.46
2019-05-07T07:54:42.981Z,12.85
2019-05-07T08:00:52.258Z,13.00
2019-05-07T08:03:37.640Z,13.90
2019-05-07T08:06:24.432Z,14.24
2019-05-07T08:09:12.994Z,13.29
2019-05-07T08:11:58.678Z,13.03
2019-05-07T08:14:45.630Z,12.94
2019-05-07T08:17:35.487Z,13.25
2019-05-07T08:20:22.975Z,13.48
2019-05-07T08:23:12.058Z,13.89
2019-05-07T08:25:56.890Z,14.14
2019-05-07T08:28:44.262Z,14.17
2019-05-07T08:31:42.470Z,14.19
2019-05-07T08:34:37.085Z,15.49
2019-05-07T08:37:24.540Z,14.32
2019-05-07T08:40:12.715Z,14.28
2019-05-07T08:42:59.123Z,14.37
2019-05-07T08:45:49.138Z,14.34
2019-05-07T08:48:36.425Z,14.16
2019-05-07T08:51:23.147Z,13.84
2019-05-07T08:54:17.038Z,13.73
2019-05-07T08:57:04.050Z,13.65
2019-05-07T09:00:00.319Z,13.65
2019-05-07T09:02:52.824Z,14.95
2019-05-07T09:05:42.580Z,13.86
2019-05-07T09:08:28.026Z,14.73
2019-05-07T09:11:29.347Z,13.60
2019-05-07T09:14:16.329Z,13.33
2019-05-07T09:17:03.436Z,13.52
2019-05-07T09:19:54.057Z,13.78
2019-05-07T09:22:51.872Z,15.51
2019-05-07T09:25:38.454Z,16.38
2019-05-07T09:28:25.794Z,15.60
2019-05-07T09:31:13.220Z,15.75
2019-05-07T09:34:07.522Z,16.28
2019-05-07T09:36:54.192Z,16.69
2019-05-07T09:39:42.750Z,16.35
2019-05-07T09:42:28.596Z,15.95
2019-05-07T09:45:15.737Z,15.65
2019-05-07T09:48:03.055Z,15.71
2019-05-07T09:50:49.891Z,15.53
2019-05-07T09:53:36.961Z,15.60
2019-05-07T09:56:23.614Z,15.87
2019-05-07T09:59:12.526Z,15.74
2019-05-07T10:01:57.335Z,15.76
2019-05-07T10:04:44.482Z,17.39
2019-05-07T10:07:32.487Z,16.29
2019-05-07T10:10:18.632Z,16.03
2019-05-07T10:13:08.204Z,15.90
2019-05-07T10:15:55.293Z,15.86
2019-05-07T10:18:43.318Z,16.24
2019-05-07T10:21:30.544Z,16.91
2019-05-07T10:24:17.566Z,17.21
2019-05-07T10:27:04.624Z,17.24
2019-05-07T10:29:53.026Z,17.14
2019-05-07T10:32:38.754Z,16.83
2019-05-07T10:38:32.246Z,16.08
2019-05-07T10:41:19.323Z,16.38
2019-05-07T10:44:06.578Z,16.54
2019-05-07T10:47:12.154Z,16.71
2019-05-07T10:50:17.342Z,16.95
2019-05-07T10:53:04.561Z,18.67
2019-05-07T11:02:04.022Z,18.54
2019-05-07T11:04:53.151Z,20.79
2019-05-07T11:07:37.936Z,19.70
2019-05-07T11:10:24.979Z,19.56
2019-05-07T11:13:12.872Z,19.23
2019-05-07T11:15:58.964Z,20.70
2019-05-07T11:18:46.044Z,19.43
2019-05-07T11:21:33.646Z,19.60
2019-05-07T11:24:19.795Z,19.48
2019-05-07T11:33:18.983Z,18.73
2019-05-07T11:36:06.810Z,18.97
2019-05-07T11:39:08.197Z,20.59
2019-05-07T11:48:07.378Z,19.29
2019-05-07T11:51:01.380Z,19.30
2019-05-07T11:54:01.955Z,19.66
2019-05-07T11:56:46.456Z,20.01
2019-05-07T11:59:33.669Z,19.69
2019-05-07T12:02:27.456Z,19.31
2019-05-07T12:05:14.110Z,18.98
2019-05-07T12:08:02.328Z,18.78
2019-05-07T12:10:48.256Z,18.68
2019-05-07T12:13:35.577Z,18.63
2019-05-07T12:16:22.652Z,18.48
2019-05-07T12:19:23.764Z,18.58
2019-05-07T12:22:12.121Z,18.90
2019-05-07T12:24:57.761Z,18.98
2019-05-07T12:27:44.959Z,18.85
2019-05-07T12:30:47.139Z,18.44
2019-05-07T12:33:39.883Z,18.08
2019-05-07T12:36:26.920Z,17.73
2019-05-07T12:39:13.785Z,17.22
2019-05-07T12:42:00.921Z,16.79
2019-05-07T12:44:47.588Z,16.55
2019-05-07T12:47:34.364Z,16.26
2019-05-07T12:50:24.647Z,17.33
2019-05-07T12:53:12.325Z,16.26
2019-05-07T12:55:58.888Z,16.19
2019-05-07T12:58:45.959Z,16.35
2019-05-07T13:01:32.916Z,16.52
2019-05-07T13:04:19.608Z,16.68
2019-05-07T13:07:09.269Z,16.64
2019-05-07T13:09:56.573Z,16.57
2019-05-07T13:12:44.033Z,16.54
2019-05-07T13:15:32.661Z,17.70
2019-05-07T13:21:24.672Z,16.45
2019-05-07T13:24:14.766Z,16.34
2019-05-07T13:26:59.197Z,16.21
2019-05-07T13:29:46.051Z,16.06
2019-05-07T13:32:33.279Z,15.96
2019-05-07T13:35:20.801Z,17.17
2019-05-07T13:38:08.046Z,16.29
2019-05-07T13:41:02.180Z,16.30
2019-05-07T13:44:05.897Z,16.42
2019-05-07T13:46:53.136Z,16.58
2019-05-07T13:49:39.919Z,18.06
2019-05-07T13:52:26.931Z,17.48
2019-05-07T13:55:13.601Z,17.71
2019-05-07T13:58:00.716Z,18.66
2019-05-07T14:01:04.891Z,19.57
2019-05-07T14:03:49.132Z,19.69
2019-05-07T14:06:39.103Z,19.88
2019-05-07T14:09:26.296Z,20.25
2019-05-07T14:12:13.591Z,20.34
2019-05-07T14:15:02.192Z,20.46
2019-05-07T14:17:48.058Z,21.83
2019-05-07T14:20:35.477Z,20.85
2019-05-07T14:23:22.743Z,20.43
2019-05-07T14:26:09.832Z,21.46
2019-05-07T14:28:56.497Z,21.45
2019-05-07T14:31:43.561Z,20.27
2019-05-07T14:37:42.547Z,19.91
2019-05-07T14:40:32.480Z,20.00
2019-05-07T14:43:18.928Z,20.52
2019-05-07T14:46:05.821Z,22.26
2019-05-07T14:48:52.853Z,20.86
2019-05-07T14:51:39.692Z,20.45
2019-05-07T14:54:27.185Z,20.23
2019-05-07T14:57:14.881Z,20.13
2019-05-07T15:00:03.291Z,20.40
2019-05-07T15:02:49.109Z,20.81
2019-05-07T15:05:36.678Z,20.77
2019-05-07T15:08:23.812Z,20.55
2019-05-07T15:11:11.016Z,20.43
2019-05-07T15:13:57.807Z,20.37
2019-05-07T15:16:44.951Z,20.24
2019-05-07T15:19:32.186Z,20.14
2019-05-07T15:25:42.882Z,21.12
2019-05-07T15:28:32.174Z,21.06
2019-05-07T15:31:16.878Z,19.84
2019-05-07T15:37:11.900Z,19.74
2019-05-07T15:39:56.714Z,19.57
2019-05-07T15:42:43.642Z,19.38
2019-05-07T15:45:30.467Z,20.52
2019-05-07T15:48:17.590Z,19.20
2019-05-07T15:51:04.552Z,18.73
2019-05-07T15:53:52.175Z,18.43
2019-05-07T15:56:38.269Z,18.28
2019-05-07T15:59:25.509Z,18.19
2019-05-07T16:02:19.461Z,18.19
2019-05-07T16:05:06.476Z,18.12
2019-05-07T16:07:53.715Z,17.96
2019-05-07T16:10:42.654Z,17.79
2019-05-07T16:13:27.598Z,17.57
2019-05-07T16:16:14.405Z,17.34
2019-05-07T16:19:01.985Z,17.10
2019-05-07T16:21:51.325Z,16.81
2019-05-07T16:24:38.979Z,16.53
2019-05-07T16:27:33.282Z,16.28
2019-05-07T16:33:26.289Z,16.24
2019-05-07T16:36:12.891Z,16.15
2019-05-07T16:38:59.880Z,16.08
2019-05-07T16:44:52.677Z,16.04
2019-05-07T16:47:39.396Z,16.02
2019-05-07T16:50:27.403Z,15.99
2019-05-07T16:59:27.432Z,15.78
2019-05-07T17:02:19.500Z,16.82
2019-05-07T17:08:12.532Z,15.68
2019-05-07T17:10:59.546Z,15.53
2019-05-07T17:13:47.772Z,15.40
2019-05-07T17:16:34.495Z,15.30
2019-05-07T17:19:22.634Z,15.21
2019-05-07T17:22:09.650Z,15.13
2019-05-07T17:28:02.950Z,14.86
2019-05-07T17:30:52.301Z,14.72
2019-05-07T17:33:36.751Z,14.53
2019-05-07T17:36:23.889Z,14.40
2019-05-07T17:39:12.212Z,15.29
2019-05-07T17:41:58.664Z,14.49
2019-05-07T17:44:45.856Z,14.32
2019-05-07T17:50:51.371Z,14.06
2019-05-07T17:53:38.443Z,13.91
2019-05-07T17:56:26.043Z,13.77
2019-05-07T17:59:12.748Z,13.61
2019-05-07T18:02:14.859Z,13.44
2019-05-07T18:05:02.850Z,14.18
2019-05-07T18:07:52.755Z,13.38
2019-05-07T18:10:42.284Z,13.12
2019-05-07T18:13:27.339Z,12.95
2019-05-07T18:16:23.687Z,12.81
2019-05-07T18:19:12.624Z,12.70
2019-05-07T18:21:58.416Z,12.60
2019-05-07T18:24:45.138Z,12.53
2019-05-07T18:27:32.954Z,12.45
2019-05-07T18:30:22.154Z,12.37
2019-05-07T18:33:12.054Z,12.29
2019-05-07T18:35:59.532Z,12.21
2019-05-07T18:38:46.616Z,12.98
2019-05-07T18:41:34.058Z,12.33
2019-05-07T18:44:22.390Z,12.13
2019-05-07T18:47:08.222Z,11.98
2019-05-07T18:49:55.315Z,11.86
2019-05-07T18:52:42.527Z,12.60
2019-05-07T18:55:29.746Z,11.96
2019-05-07T18:58:17.117Z,11.79
2019-05-07T19:04:16.171Z,11.55
2019-05-07T19:07:04.086Z,11.46
2019-05-07T19:09:51.667Z,11.36
2019-05-07T19:12:38.079Z,11.28
2019-05-07T19:15:26.020Z,11.21
2019-05-07T19:18:12.756Z,11.93
2019-05-07T19:21:00.706Z,12.09
2019-05-07T19:23:47.528Z,11.41
2019-05-07T19:26:35.947Z,11.20
2019-05-07T19:29:23.486Z,11.02
2019-05-07T19:32:12.120Z,10.89
2019-05-07T19:34:59.152Z,10.74
2019-05-07T19:37:46.375Z,10.60
2019-05-07T19:40:33.585Z,10.47
2019-05-07T19:43:21.815Z,10.35
2019-05-07T19:46:08.395Z,10.23
2019-05-07T19:48:57.356Z,10.11
2019-05-07T19:51:43.574Z,9.99
2019-05-07T19:54:32.355Z,9.89
2019-05-07T19:57:20.422Z,9.78
2019-05-07T20:00:07.355Z,9.68
2019-05-07T20:02:56.105Z,9.60
2019-05-07T20:08:49.746Z,9.39
2019-05-07T20:11:49.504Z,9.26
2019-05-07T20:14:36.253Z,9.09
2019-05-07T20:17:23.055Z,9.74
2019-05-07T20:20:12.384Z,9.86
2019-05-07T20:22:57.638Z,9.18
2019-05-07T20:25:45.493Z,8.99
2019-05-07T20:28:32.879Z,8.87
2019-05-07T20:31:22.694Z,8.74
2019-05-07T20:34:09.503Z,8.63
2019-05-07T20:36:56.799Z,8.50
2019-05-07T20:39:43.736Z,8.39
2019-05-07T20:42:32.395Z,8.30
2019-05-07T20:45:17.887Z,8.22
2019-05-07T20:48:05.227Z,8.15
2019-05-07T20:50:54.289Z,8.11
2019-05-07T20:57:08.616Z,8.00
2019-05-07T20:59:55.512Z,8.67
2019-05-07T21:02:47.925Z,8.21
2019-05-07T21:08:36.131Z,8.04
2019-05-07T21:11:23.348Z,8.00
2019-05-07T21:14:12.109Z,7.95
2019-05-07T21:16:57.467Z,7.90
2019-05-07T21:19:44.168Z,8.53
2019-05-07T21:22:32.076Z,8.05
2019-05-07T21:25:20.017Z,7.95
2019-05-07T21:28:07.036Z,7.87
2019-05-07T21:30:54.980Z,7.82
2019-05-07T21:33:42.919Z,7.76
2019-05-07T21:36:28.911Z,7.70
2019-05-07T21:42:22.869Z,8.24
2019-05-07T21:45:08.805Z,7.75
2019-05-07T21:47:56.087Z,7.63
2019-05-07T21:50:43.899Z,7.55
2019-05-07T21:53:43.057Z,7.48
2019-05-07T21:56:32.491Z,7.40
2019-05-07T21:59:21.888Z,7.34
2019-05-07T22:02:14.798Z,7.93
2019-05-07T22:05:02.589Z,7.45
2019-05-07T22:07:48.572Z,7.32
2019-05-07T22:10:35.845Z,7.23
2019-05-07T22:13:23.005Z,7.16
2019-05-07T22:16:09.790Z,7.10
2019-05-07T22:18:58.335Z,7.04
2019-05-07T22:21:46.147Z,6.98
2019-05-07T22:24:33.092Z,6.93
2019-05-07T22:27:22.063Z,6.88
2019-05-07T22:30:07.093Z,6.84
2019-05-07T22:33:02.452Z,7.47
2019-05-07T22:35:48.199Z,7.70
2019-05-07T22:38:36.393Z,7.21
2019-05-07T22:41:23.302Z,7.12
2019-05-07T22:44:12.038Z,7.09
2019-05-07T22:46:57.657Z,7.09
2019-05-07T22:52:52.487Z,7.06
2019-05-07T22:55:45.198Z,7.06
2019-05-07T22:58:32.636Z,7.04
2019-05-07T23:01:19.776Z,7.04
2019-05-07T23:04:08.066Z,7.01
2019-05-07T23:06:56.007Z,6.97
2019-05-07T23:09:52.215Z,6.94
2019-05-07T23:12:38.264Z,6.91
2019-05-07T23:15:26.714Z,6.89
2019-05-07T23:18:14.497Z,6.85
2019-05-07T23:21:01.385Z,6.84
2019-05-07T23:23:48.841Z,6.81
2019-05-07T23:26:47.394Z,7.44
2019-05-07T23:29:37.950Z,6.99
2019-05-07T23:32:26.379Z,6.89
2019-05-07T23:35:13.774Z,6.84
2019-05-07T23:38:02.497Z,6.80
2019-05-07T23:41:06.374Z,6.80
2019-05-07T23:44:12.777Z,6.81
2019-05-07T23:47:02.730Z,6.83
2019-05-07T23:49:47.844Z,6.87
2019-05-07T23:52:49.703Z,7.55
2019-05-07T23:55:36.801Z,7.11
2019-05-07T23:58:24.059Z,6.97
